Mount Holly, Vermont
Current Conditions -  °F | °C
As of 2:35 PM on Monday 22 Dec 2014 (Local Time) from KRUT Reporting Station
Overcast Overcast  
Wind Chill: -3°   Ceiling: 3900
Heat Index:   Visibility: 10mi
Dew Point: -2°   Wind: 16mph
Humidity: 75%   Direction: 120°ESE
Pressure: 30.26"   Gusts: 22mph
Location:  43.45°N, 72.83°W
Report Text: KRUT 221935Z 12014G19KT 10SM OVC039 02/M02 A3026 RMK AO1
Loading
Personal Weather Stations






























Interactive Weather Map New forecast layout! Learn more

10-Day Weather Forecast

Advertisements
Track Severe Weather on mobile